sensor_id;sensor_type;location;lat;lon;timestamp;pressure;altitude;pressure_sealevel;temperature;humidity
45255;BME280;30989;52.078;21.014;2022-09-01T00:02:12;167338.22;;;13.64;75.82
45255;BME280;30989;52.078;21.014;2022-09-01T00:04:41;167316.75;;;13.56;76.09
45255;BME280;30989;52.078;21.014;2022-09-01T00:07:08;167310.06;;;13.53;76.52
45255;BME280;30989;52.078;21.014;2022-09-01T00:09:34;167302.00;;;13.50;76.76
45255;BME280;30989;52.078;21.014;2022-09-01T00:12:00;167285.91;;;13.44;76.77
45255;BME280;30989;52.078;21.014;2022-09-01T00:14:31;167277.84;;;13.41;76.93
45255;BME280;30989;52.078;21.014;2022-09-01T00:16:58;167264.44;;;13.36;77.39
45255;BME280;30989;52.078;21.014;2022-09-01T00:19:24;167257.72;;;13.34;77.42
45255;BME280;30989;52.078;21.014;2022-09-01T00:21:50;167251.00;;;13.31;77.66
45255;BME280;30989;52.078;21.014;2022-09-01T00:24:16;167232.22;;;13.24;77.83
45255;BME280;30989;52.078;21.014;2022-09-01T00:26:43;167234.91;;;13.25;77.92
45255;BME280;30989;52.078;21.014;2022-09-01T00:29:09;167226.88;;;13.22;78.28
45255;BME280;30989;52.078;21.014;2022-09-01T00:31:34;167214.78;;;13.17;78.29
45255;BME280;30989;52.078;21.014;2022-09-01T00:34:00;167209.38;;;13.15;78.71
45255;BME280;30989;52.078;21.014;2022-09-01T00:36:26;167190.59;;;13.08;79.00
45255;BME280;30989;52.078;21.014;2022-09-01T00:38:52;167175.84;;;13.03;79.01
45255;BME280;30989;52.078;21.014;2022-09-01T00:41:21;167157.06;;;12.96;79.31
45255;BME280;30989;52.078;21.014;2022-09-01T00:46:21;167149.00;;;12.93;79.51
45255;BME280;30989;52.078;21.014;2022-09-01T00:48:52;167136.94;;;12.88;79.86
45255;BME280;30989;52.078;21.014;2022-09-01T00:51:18;167134.25;;;12.87;79.86
45255;BME280;30989;52.078;21.014;2022-09-01T00:53:44;167127.56;;;12.84;81.00
45255;BME280;30989;52.078;21.014;2022-09-01T00:56:10;167122.19;;;12.82;80.47
45255;BME280;30989;52.078;21.014;2022-09-01T00:58:37;167099.38;;;12.74;81.20
45255;BME280;30989;52.078;21.014;2022-09-01T01:01:08;167090.00;;;12.70;81.05
45255;BME280;30989;52.078;21.014;2022-09-01T01:03:34;167096.72;;;12.73;81.80
45255;BME280;30989;52.078;21.014;2022-09-01T01:06:03;167090.00;;;12.70;81.57
45255;BME280;30989;52.078;21.014;2022-09-01T01:08:32;167077.94;;;12.66;82.16
45255;BME280;30989;52.078;21.014;2022-09-01T01:11:02;167071.22;;;12.63;82.18
45255;BME280;30989;52.078;21.014;2022-09-01T01:13:32;167067.19;;;12.62;82.71
45255;BME280;30989;52.078;21.014;2022-09-01T01:16:02;167059.16;;;12.58;82.67
45255;BME280;30989;52.078;21.014;2022-09-01T01:18:28;167056.47;;;12.57;82.40
45255;BME280;30989;52.078;21.014;2022-09-01T01:21:09;167045.75;;;12.53;82.47
45255;BME280;30989;52.078;21.014;2022-09-01T01:26:31;167037.69;;;12.50;83.44
45255;BME280;30989;52.078;21.014;2022-09-01T01:28:57;167020.28;;;12.44;83.38
45255;BME280;30989;52.078;21.014;2022-09-01T01:31:23;167018.94;;;12.43;83.19
45255;BME280;30989;52.078;21.014;2022-09-01T01:33:51;167021.59;;;12.44;83.94
45255;BME280;30989;52.078;21.014;2022-09-01T01:36:32;167009.53;;;12.40;84.03
45255;BME280;30989;52.078;21.014;2022-09-01T01:39:11;166978.72;;;12.28;84.11
45255;BME280;30989;52.078;21.014;2022-09-01T01:41:40;166985.41;;;12.31;84.10
45255;BME280;30989;52.078;21.014;2022-09-01T01:44:11;166969.31;;;12.24;84.34
45255;BME280;30989;52.078;21.014;2022-09-01T01:46:40;166957.25;;;12.20;84.46
45255;BME280;30989;52.078;21.014;2022-09-01T01:49:08;166943.84;;;12.15;84.70
45255;BME280;30989;52.078;21.014;2022-09-01T01:51:34;166933.13;;;12.11;85.01
45255;BME280;30989;52.078;21.014;2022-09-01T01:54:02;166938.50;;;12.13;85.11
45255;BME280;30989;52.078;21.014;2022-09-01T01:56:31;166930.44;;;12.10;85.27
45255;BME280;30989;52.078;21.014;2022-09-01T01:58:59;166911.69;;;12.03;86.04
45255;BME280;30989;52.078;21.014;2022-09-01T02:01:28;166902.28;;;11.99;86.04
45255;BME280;30989;52.078;21.014;2022-09-01T02:03:58;166898.28;;;11.98;86.08
45255;BME280;30989;52.078;21.014;2022-09-01T02:06:25;166887.53;;;11.93;85.81
45255;BME280;30989;52.078;21.014;2022-09-01T02:08:55;166886.19;;;11.93;86.85
45255;BME280;30989;52.078;21.014;2022-09-01T02:11:23;166870.13;;;11.87;86.84
45255;BME280;30989;52.078;21.014;2022-09-01T02:13:52;166871.47;;;11.87;86.64
45255;BME280;30989;52.078;21.014;2022-09-01T02:16:23;166863.41;;;11.84;86.64
45255;BME280;30989;52.078;21.014;2022-09-01T02:18:50;166847.34;;;11.78;86.73
45255;BME280;30989;52.078;21.014;2022-09-01T02:21:18;166841.91;;;11.76;87.50
45255;BME280;30989;52.078;21.014;2022-09-01T02:24:05;166839.25;;;11.75;87.43
45255;BME280;30989;52.078;21.014;2022-09-01T02:26:37;166827.19;;;11.71;88.06
45255;BME280;30989;52.078;21.014;2022-09-01T02:29:07;166813.78;;;11.66;87.72
45255;BME280;30989;52.078;21.014;2022-09-01T02:31:38;166785.63;;;11.55;88.47
45255;BME280;30989;52.078;21.014;2022-09-01T02:34:05;166778.94;;;11.52;88.92
45255;BME280;30989;52.078;21.014;2022-09-01T02:36:36;166756.16;;;11.44;88.57
45255;BME280;30989;52.078;21.014;2022-09-01T02:39:10;166752.13;;;11.42;89.63
45255;BME280;30989;52.078;21.014;2022-09-01T02:41:35;166745.44;;;11.40;89.42
45255;BME280;30989;52.078;21.014;2022-09-01T02:44:03;166733.38;;;11.35;89.73
45255;BME280;30989;52.078;21.014;2022-09-01T02:46:38;166734.69;;;11.36;89.52
45255;BME280;30989;52.078;21.014;2022-09-01T02:49:25;166729.34;;;11.34;90.18
45255;BME280;30989;52.078;21.014;2022-09-01T02:51:53;166719.97;;;11.30;90.17
45255;BME280;30989;52.078;21.014;2022-09-01T02:54:24;166710.59;;;11.26;90.13
45255;BME280;30989;52.078;21.014;2022-09-01T02:56:51;166714.59;;;11.28;90.24
45255;BME280;30989;52.078;21.014;2022-09-01T02:59:21;166699.88;;;11.22;89.70
45255;BME280;30989;52.078;21.014;2022-09-01T03:01:58;166705.22;;;11.24;90.28
45255;BME280;30989;52.078;21.014;2022-09-01T03:04:24;166686.47;;;11.17;90.33
45255;BME280;30989;52.078;21.014;2022-09-01T03:06:51;166654.31;;;11.05;90.57
45255;BME280;30989;52.078;21.014;2022-09-01T03:09:19;166635.56;;;10.98;90.78
45255;BME280;30989;52.078;21.014;2022-09-01T03:11:48;166635.56;;;10.98;91.41
45255;BME280;30989;52.078;21.014;2022-09-01T03:14:14;166632.88;;;10.97;91.67
45255;BME280;30989;52.078;21.014;2022-09-01T03:16:40;166602.06;;;10.85;91.69
45255;BME280;30989;52.078;21.014;2022-09-01T03:19:07;166616.81;;;10.91;91.93
45255;BME280;30989;52.078;21.014;2022-09-01T03:21:38;166603.41;;;10.86;91.88
45255;BME280;30989;52.078;21.014;2022-09-01T03:24:06;166598.03;;;10.84;92.00
45255;BME280;30989;52.078;21.014;2022-09-01T03:26:34;166591.34;;;10.81;92.30
45255;BME280;30989;52.078;21.014;2022-09-01T03:29:00;166568.59;;;10.73;91.98
45255;BME280;30989;52.078;21.014;2022-09-01T03:31:27;166564.56;;;10.71;92.69
45255;BME280;30989;52.078;21.014;2022-09-01T03:33:55;166565.91;;;10.72;92.55
45255;BME280;30989;52.078;21.014;2022-09-01T03:36:26;166548.47;;;10.65;92.61
45255;BME280;30989;52.078;21.014;2022-09-01T03:38:53;166531.06;;;10.58;92.87
45255;BME280;30989;52.078;21.014;2022-09-01T03:41:23;166508.31;;;10.50;93.37
45255;BME280;30989;52.078;21.014;2022-09-01T03:43:50;166489.56;;;10.43;93.51
45255;BME280;30989;52.078;21.014;2022-09-01T03:46:20;166473.44;;;10.37;94.38
45255;BME280;30989;52.078;21.014;2022-09-01T03:48:51;166469.41;;;10.35;94.58
45255;BME280;30989;52.078;21.014;2022-09-01T03:51:19;166437.28;;;10.23;94.04
45255;BME280;30989;52.078;21.014;2022-09-01T03:53:50;166426.53;;;10.19;95.17
45255;BME280;30989;52.078;21.014;2022-09-01T03:56:19;166418.50;;;10.16;94.75
45255;BME280;30989;52.078;21.014;2022-09-01T03:58:46;166409.09;;;10.12;95.21
45255;BME280;30989;52.078;21.014;2022-09-01T04:01:14;166389.03;;;10.05;95.50
45255;BME280;30989;52.078;21.014;2022-09-01T04:03:40;166386.34;;;10.03;95.31
45255;BME280;30989;52.078;21.014;2022-09-01T04:06:08;166378.31;;;10.00;95.44
45255;BME280;30989;52.078;21.014;2022-09-01T04:08:34;166372.97;;;9.98;95.83
45255;BME280;30989;52.078;21.014;2022-09-01T04:11:04;166370.28;;;9.97;95.83
45255;BME280;30989;52.078;21.014;2022-09-01T04:13:36;166362.25;;;9.94;96.56
45255;BME280;30989;52.078;21.014;2022-09-01T04:16:04;166347.53;;;9.89;96.16
45255;BME280;30989;52.078;21.014;2022-09-01T04:18:56;166346.19;;;9.88;96.39
45255;BME280;30989;52.078;21.014;2022-09-01T04:21:24;166356.91;;;9.92;96.63
45255;BME280;30989;52.078;21.014;2022-09-01T04:23:51;166371.63;;;9.98;96.93
45255;BME280;30989;52.078;21.014;2022-09-01T04:26:16;166397.06;;;10.08;96.56
45255;BME280;30989;52.078;21.014;2022-09-01T04:28:48;166406.44;;;10.11;96.69
45255;BME280;30989;52.078;21.014;2022-09-01T04:31:19;166411.78;;;10.13;96.80
45255;BME280;30989;52.078;21.014;2022-09-01T04:33:50;166415.81;;;10.15;96.98
45255;BME280;30989;52.078;21.014;2022-09-01T04:36:26;166399.75;;;10.09;96.58
45255;BME280;30989;52.078;21.014;2022-09-01T04:38:56;166389.03;;;10.05;97.39
45255;BME280;30989;52.078;21.014;2022-09-01T04:41:29;166415.81;;;10.15;97.19
45255;BME280;30989;52.078;21.014;2022-09-01T04:44:00;166418.50;;;10.16;97.05
45255;BME280;30989;52.078;21.014;2022-09-01T04:46:34;166442.63;;;10.25;97.05
45255;BME280;30989;52.078;21.014;2022-09-01T04:49:03;166470.75;;;10.36;97.15
45255;BME280;30989;52.078;21.014;2022-09-01T04:51:46;166482.88;;;10.40;96.79
45255;BME280;30989;52.078;21.014;2022-09-01T04:54:13;166531.06;;;10.58;96.46
45255;BME280;30989;52.078;21.014;2022-09-01T04:56:47;166552.50;;;10.67;96.41
45255;BME280;30989;52.078;21.014;2022-09-01T04:59:16;166561.88;;;10.70;96.30
45255;BME280;30989;52.078;21.014;2022-09-01T05:01:46;166580.63;;;10.77;95.88
45255;BME280;30989;52.078;21.014;2022-09-01T05:04:20;166587.34;;;10.80;96.19
45255;BME280;30989;52.078;21.014;2022-09-01T05:06:50;166590.00;;;10.81;95.89
45255;BME280;30989;52.078;21.014;2022-09-01T05:09:19;166581.97;;;10.78;96.10
45255;BME280;30989;52.078;21.014;2022-09-01T05:12:05;166579.28;;;10.77;95.36
45255;BME280;30989;52.078;21.014;2022-09-01T05:14:44;166608.75;;;10.88;96.11
45255;BME280;30989;52.078;21.014;2022-09-01T05:17:11;166616.81;;;10.91;96.08
45255;BME280;30989;52.078;21.014;2022-09-01T05:19:42;166608.75;;;10.88;96.28
45255;BME280;30989;52.078;21.014;2022-09-01T05:22:09;166638.25;;;10.99;96.00
45255;BME280;30989;52.078;21.014;2022-09-01T05:24:39;166652.97;;;11.05;96.22
45255;BME280;30989;52.078;21.014;2022-09-01T05:27:05;166674.41;;;11.13;95.54
45255;BME280;30989;52.078;21.014;2022-09-01T05:29:36;166698.53;;;11.22;96.10
45255;BME280;30989;52.078;21.014;2022-09-01T05:32:07;166699.88;;;11.22;95.96
45255;BME280;30989;52.078;21.014;2022-09-01T05:34:37;166701.22;;;11.23;95.02
45255;BME280;30989;52.078;21.014;2022-09-01T05:37:06;166756.16;;;11.44;95.56
45255;BME280;30989;52.078;21.014;2022-09-01T05:39:33;166777.59;;;11.52;95.28
45255;BME280;30989;52.078;21.014;2022-09-01T05:42:01;166807.06;;;11.63;95.21
45255;BME280;30989;52.078;21.014;2022-09-01T05:44:28;166825.84;;;11.70;95.29
45255;BME280;30989;52.078;21.014;2022-09-01T05:46:57;166854.03;;;11.81;94.90
45255;BME280;30989;52.078;21.014;2022-09-01T05:49:25;166926.41;;;12.08;95.47
45255;BME280;30989;52.078;21.014;2022-09-01T05:51:52;167000.16;;;12.36;93.52
45255;BME280;30989;52.078;21.014;2022-09-01T05:54:21;167032.34;;;12.48;92.04
45255;BME280;30989;52.078;21.014;2022-09-01T05:56:50;167071.22;;;12.63;91.73
45255;BME280;30989;52.078;21.014;2022-09-01T05:59:24;167072.56;;;12.64;91.64
45255;BME280;30989;52.078;21.014;2022-09-01T06:01:54;167094.03;;;12.72;91.53
45255;BME280;30989;52.078;21.014;2022-09-01T06:04:21;167116.81;;;12.80;91.35
45255;BME280;30989;52.078;21.014;2022-09-01T06:06:48;167131.56;;;12.86;90.88
45255;BME280;30989;52.078;21.014;2022-09-01T06:09:16;167145.00;;;12.91;90.81
45255;BME280;30989;52.078;21.014;2022-09-01T06:11:44;167139.63;;;12.89;90.71
45255;BME280;30989;52.078;21.014;2022-09-01T06:14:13;167157.06;;;12.96;90.11
45255;BME280;30989;52.078;21.014;2022-09-01T06:16:41;167195.97;;;13.10;89.42
45255;BME280;30989;52.078;21.014;2022-09-01T06:19:09;167213.44;;;13.17;89.36
45255;BME280;30989;52.078;21.014;2022-09-01T06:21:37;167240.28;;;13.27;89.15
45255;BME280;30989;52.078;21.014;2022-09-01T06:24:04;167269.78;;;13.38;88.81
45255;BME280;30989;52.078;21.014;2022-09-01T06:26:34;167281.88;;;13.43;87.34
45255;BME280;30989;52.078;21.014;2022-09-01T06:29:03;167312.72;;;13.54;87.35
45255;BME280;30989;52.078;21.014;2022-09-01T06:31:32;167332.88;;;13.62;87.47
45255;BME280;30989;52.078;21.014;2022-09-01T06:34:06;167359.69;;;13.72;86.83
45255;BME280;30989;52.078;21.014;2022-09-01T06:36:37;167382.50;;;13.81;85.82
45255;BME280;30989;52.078;21.014;2022-09-01T06:39:06;167410.69;;;13.92;85.32
45255;BME280;30989;52.078;21.014;2022-09-01T06:41:33;167426.81;;;13.98;84.31
45255;BME280;30989;52.078;21.014;2022-09-01T06:44:04;167446.94;;;14.05;84.13
45255;BME280;30989;52.078;21.014;2022-09-01T06:46:30;167471.09;;;14.14;83.75
45255;BME280;30989;52.078;21.014;2022-09-01T06:49:00;167479.16;;;14.17;83.41
45255;BME280;30989;52.078;21.014;2022-09-01T06:51:26;167515.41;;;14.31;81.16
45255;BME280;30989;52.078;21.014;2022-09-01T06:53:57;167515.41;;;14.31;81.91
45255;BME280;30989;52.078;21.014;2022-09-01T06:56:28;167539.56;;;14.40;81.64
45255;BME280;30989;52.078;21.014;2022-09-01T06:59:00;167578.53;;;14.55;80.71
45255;BME280;30989;52.078;21.014;2022-09-01T07:01:31;167598.69;;;14.63;80.07
45255;BME280;30989;52.078;21.014;2022-09-01T07:03:56;167628.22;;;14.74;79.46
45255;BME280;30989;52.078;21.014;2022-09-01T07:06:35;167655.06;;;14.84;79.33
45255;BME280;30989;52.078;21.014;2022-09-01T07:09:17;167680.59;;;14.94;79.38
45255;BME280;30989;52.078;21.014;2022-09-01T07:11:57;167712.81;;;15.06;78.34
45255;BME280;30989;52.078;21.014;2022-09-01T07:14:25;167741.03;;;15.16;78.56
45255;BME280;30989;52.078;21.014;2022-09-01T07:16:50;167773.25;;;15.29;78.23
45255;BME280;30989;52.078;21.014;2022-09-01T07:19:16;167794.75;;;15.37;77.54
45255;BME280;30989;52.078;21.014;2022-09-01T07:21:51;167831.03;;;15.51;75.95
45255;BME280;30989;52.078;21.014;2022-09-01T07:24:17;167851.22;;;15.58;74.75
45255;BME280;30989;52.078;21.014;2022-09-01T07:27:07;167860.69;;;15.62;74.18
45255;BME280;30989;52.078;21.014;2022-09-01T07:29:34;167879.47;;;15.69;73.73
45255;BME280;30989;52.078;21.014;2022-09-01T07:32:00;167888.88;;;15.72;74.05
45255;BME280;30989;52.078;21.014;2022-09-01T07:34:27;167914.41;;;15.82;71.59
45255;BME280;30989;52.078;21.014;2022-09-01T07:36:53;167931.88;;;15.89;71.21
45255;BME280;30989;52.078;21.014;2022-09-01T07:39:22;167953.38;;;15.97;71.08
45255;BME280;30989;52.078;21.014;2022-09-01T07:42:07;167985.63;;;16.09;71.34
45255;BME280;30989;52.078;21.014;2022-09-01T07:45:05;168011.16;;;16.19;70.62
45255;BME280;30989;52.078;21.014;2022-09-01T07:47:45;168027.28;;;16.25;70.35
45255;BME280;30989;52.078;21.014;2022-09-01T07:50:12;168027.28;;;16.25;67.40
45255;BME280;30989;52.078;21.014;2022-09-01T07:52:41;168015.19;;;16.20;68.84
45255;BME280;30989;52.078;21.014;2022-09-01T07:55:10;168015.19;;;16.20;68.98
45255;BME280;30989;52.078;21.014;2022-09-01T07:57:38;168024.59;;;16.24;67.90
45255;BME280;30989;52.078;21.014;2022-09-01T08:00:11;168056.88;;;16.36;68.88
45255;BME280;30989;52.078;21.014;2022-09-01T08:02:41;168093.16;;;16.50;68.99
45255;BME280;30989;52.078;21.014;2022-09-01T08:05:13;168138.91;;;16.67;67.86
45255;BME280;30989;52.078;21.014;2022-09-01T08:07:40;168152.34;;;16.72;65.37
45255;BME280;30989;52.078;21.014;2022-09-01T08:10:07;168184.59;;;16.84;65.95
45255;BME280;30989;52.078;21.014;2022-09-01T08:12:37;168189.97;;;16.86;65.57
45255;BME280;30989;52.078;21.014;2022-09-01T08:15:05;168187.28;;;16.85;65.58
45255;BME280;30989;52.078;21.014;2022-09-01T08:17:31;168171.16;;;16.79;64.59
45255;BME280;30989;52.078;21.014;2022-09-01T08:20:01;168142.94;;;16.68;64.30
45255;BME280;30989;52.078;21.014;2022-09-01T08:22:52;168129.44;;;16.63;64.86
45255;BME280;30989;52.078;21.014;2022-09-01T08:25:34;168149.66;;;16.71;65.78
45255;BME280;30989;52.078;21.014;2022-09-01T08:28:02;168196.72;;;16.89;66.54
45255;BME280;30989;52.078;21.014;2022-09-01T08:30:28;168246.44;;;17.07;66.17
45255;BME280;30989;52.078;21.014;2022-09-01T08:32:57;168272.00;;;17.17;65.17
45255;BME280;30989;52.078;21.014;2022-09-01T08:35:23;168312.34;;;17.32;65.41
45255;BME280;30989;52.078;21.014;2022-09-01T08:37:50;168354.03;;;17.48;64.71
45255;BME280;30989;52.078;21.014;2022-09-01T08:40:17;168367.47;;;17.53;63.33
45255;BME280;30989;52.078;21.014;2022-09-01T08:45:54;168343.28;;;17.44;64.05
45255;BME280;30989;52.078;21.014;2022-09-01T08:48:40;168313.69;;;17.33;63.58
45255;BME280;30989;52.078;21.014;2022-09-01T08:51:48;168336.53;;;17.42;63.50
45255;BME280;30989;52.078;21.014;2022-09-01T08:54:44;168370.16;;;17.54;61.89
45255;BME280;30989;52.078;21.014;2022-09-01T08:57:19;168402.50;;;17.66;62.20
45255;BME280;30989;52.078;21.014;2022-09-01T09:00:05;168410.56;;;17.69;62.46
45255;BME280;30989;52.078;21.014;2022-09-01T09:02:56;168397.06;;;17.64;61.73
45255;BME280;30989;52.078;21.014;2022-09-01T09:16:27;168245.13;;;17.07;62.22
45255;BME280;30989;52.078;21.014;2022-09-01T09:19:02;168224.94;;;16.99;61.81
45255;BME280;30989;52.078;21.014;2022-09-01T09:21:36;168226.28;;;17.00;63.43
45255;BME280;30989;52.078;21.014;2022-09-01T09:24:09;168280.06;;;17.20;64.16
45255;BME280;30989;52.078;21.014;2022-09-01T09:26:36;168337.91;;;17.42;62.59
45255;BME280;30989;52.078;21.014;2022-09-01T09:29:03;168302.94;;;17.29;61.35
45255;BME280;30989;52.078;21.014;2022-09-01T09:31:30;168321.75;;;17.36;62.37
45255;BME280;30989;52.078;21.014;2022-09-01T09:33:57;168327.13;;;17.38;63.26
45255;BME280;30989;52.078;21.014;2022-09-01T09:36:35;168358.06;;;17.50;63.58
45255;BME280;30989;52.078;21.014;2022-09-01T09:39:10;168410.56;;;17.69;63.32
45255;BME280;30989;52.078;21.014;2022-09-01T09:41:37;168454.97;;;17.86;63.25
45255;BME280;30989;52.078;21.014;2022-09-01T09:44:20;168491.28;;;18.00;62.98
45255;BME280;30989;52.078;21.014;2022-09-01T09:46:47;168514.16;;;18.09;60.92
45255;BME280;30989;52.078;21.014;2022-09-01T09:49:32;168507.44;;;18.06;61.93
45255;BME280;30989;52.078;21.014;2022-09-01T09:54:31;168520.88;;;18.11;61.96
45255;BME280;30989;52.078;21.014;2022-09-01T09:57:14;168534.31;;;18.16;61.33
45255;BME280;30989;52.078;21.014;2022-09-01T10:02:30;168655.47;;;18.62;60.19
45255;BME280;30989;52.078;21.014;2022-09-01T10:05:01;168725.47;;;18.88;59.52
45255;BME280;30989;52.078;21.014;2022-09-01T10:07:43;168776.59;;;19.08;59.79
45255;BME280;30989;52.078;21.014;2022-09-01T10:12:58;168815.66;;;19.22;56.76
45255;BME280;30989;52.078;21.014;2022-09-01T10:15:28;168790.06;;;19.13;56.35
45255;BME280;30989;52.078;21.014;2022-09-01T10:17:59;168802.19;;;19.17;56.53
45255;BME280;30989;52.078;21.014;2022-09-01T10:20:27;168810.25;;;19.20;55.41
45255;BME280;30989;52.078;21.014;2022-09-01T10:22:53;168825.06;;;19.26;54.87
45255;BME280;30989;52.078;21.014;2022-09-01T10:25:23;168811.59;;;19.21;56.86
45255;BME280;30989;52.078;21.014;2022-09-01T10:27:56;168881.63;;;19.47;53.84
45255;BME280;30989;52.078;21.014;2022-09-01T10:30:23;168887.00;;;19.49;53.05
45255;BME280;30989;52.078;21.014;2022-09-01T10:32:52;168897.81;;;19.53;52.17
45255;BME280;30989;52.078;21.014;2022-09-01T10:35:26;168899.16;;;19.54;52.45
45255;BME280;30989;52.078;21.014;2022-09-01T10:37:53;168915.31;;;19.60;53.48
45255;BME280;30989;52.078;21.014;2022-09-01T10:48:34;169237.31;;;20.81;48.27
45255;BME280;30989;52.078;21.014;2022-09-01T10:56:48;169458.38;;;21.65;47.24
45255;BME280;30989;52.078;21.014;2022-09-01T11:04:21;169624.25;;;22.27;46.39
45255;BME280;30989;52.078;21.014;2022-09-01T11:09:40;169617.50;;;22.25;44.99
45255;BME280;30989;52.078;21.014;2022-09-01T11:12:36;169599.97;;;22.18;44.98
45255;BME280;30989;52.078;21.014;2022-09-01T11:15:36;169521.72;;;21.88;43.48
45255;BME280;30989;52.078;21.014;2022-09-01T11:18:13;169492.06;;;21.77;44.83
45255;BME280;30989;52.078;21.014;2022-09-01T11:20:40;169521.72;;;21.88;45.88
45255;BME280;30989;52.078;21.014;2022-09-01T11:23:23;169579.75;;;22.10;44.40
45255;BME280;30989;52.078;21.014;2022-09-01T11:25:51;169746.94;;;22.73;44.63
45255;BME280;30989;52.078;21.014;2022-09-01T11:33:56;170443.50;;;25.35;38.96
45255;BME280;30989;52.078;21.014;2022-09-01T11:36:36;170620.50;;;26.02;38.66
45255;BME280;30989;52.078;21.014;2022-09-01T11:47:15;170288.19;;;24.77;39.27
45255;BME280;30989;52.078;21.014;2022-09-01T11:49:52;170498.84;;;25.56;36.77
45255;BME280;30989;52.078;21.014;2022-09-01T11:52:20;170581.28;;;25.87;35.74
45255;BME280;30989;52.078;21.014;2022-09-01T11:54:47;170621.88;;;26.02;35.31
45255;BME280;30989;52.078;21.014;2022-09-01T11:57:29;170675.91;;;26.23;35.99
45255;BME280;30989;52.078;21.014;2022-09-01T11:59:56;170885.44;;;27.02;35.61
45255;BME280;30989;52.078;21.014;2022-09-01T12:02:26;171134.19;;;27.95;36.01
45255;BME280;30989;52.078;21.014;2022-09-01T12:04:54;171295.16;;;28.55;32.36
45255;BME280;30989;52.078;21.014;2022-09-01T12:07:27;171211.31;;;28.24;32.79
45255;BME280;30989;52.078;21.014;2022-09-01T12:09:54;171003.00;;;27.46;32.36
45255;BME280;30989;52.078;21.014;2022-09-01T12:15:23;170997.59;;;27.44;31.62
45255;BME280;30989;52.078;21.014;2022-09-01T12:17:50;170770.53;;;26.58;33.28
45255;BME280;30989;52.078;21.014;2022-09-01T12:22:47;170905.69;;;27.09;33.00
45255;BME280;30989;52.078;21.014;2022-09-01T12:25:22;170742.16;;;26.48;33.01
45255;BME280;30989;52.078;21.014;2022-09-01T12:27:49;170532.66;;;25.69;34.29
45255;BME280;30989;52.078;21.014;2022-09-01T12:30:14;170316.53;;;24.88;34.21
45255;BME280;30989;52.078;21.014;2022-09-01T12:32:40;170085.66;;;24.01;34.19
45255;BME280;30989;52.078;21.014;2022-09-01T12:35:20;170058.69;;;23.91;36.27
45255;BME280;30989;52.078;21.014;2022-09-01T12:37:47;170131.56;;;24.18;34.82
45255;BME280;30989;52.078;21.014;2022-09-01T12:40:31;170330.03;;;24.93;35.62
45255;BME280;30989;52.078;21.014;2022-09-01T12:42:57;170639.44;;;26.09;32.50
45255;BME280;30989;52.078;21.014;2022-09-01T12:48:01;171027.34;;;27.55;32.86
45255;BME280;30989;52.078;21.014;2022-09-01T12:52:57;171315.44;;;28.63;31.25
45255;BME280;30989;52.078;21.014;2022-09-01T12:55:25;171414.22;;;29.00;30.08
45255;BME280;30989;52.078;21.014;2022-09-01T12:57:53;171514.31;;;29.38;30.20
45255;BME280;30989;52.078;21.014;2022-09-01T13:00:25;171623.94;;;29.79;29.35
45255;BME280;30989;52.078;21.014;2022-09-01T13:03:06;171646.94;;;29.88;28.91
45255;BME280;30989;52.078;21.014;2022-09-01T13:05:37;171721.41;;;30.15;29.46
45255;BME280;30989;52.078;21.014;2022-09-01T13:08:09;171576.59;;;29.61;28.32
45255;BME280;30989;52.078;21.014;2022-09-01T13:10:38;171339.78;;;28.72;28.40
45255;BME280;30989;52.078;21.014;2022-09-01T13:13:04;171092.28;;;27.79;29.36
45255;BME280;30989;52.078;21.014;2022-09-01T13:15:31;170908.41;;;27.10;29.83
45255;BME280;30989;52.078;21.014;2022-09-01T13:17:56;170924.63;;;27.16;29.46
45255;BME280;30989;52.078;21.014;2022-09-01T13:20:22;171028.69;;;27.55;29.54
45255;BME280;30989;52.078;21.014;2022-09-01T13:22:48;171195.03;;;28.18;28.74
45255;BME280;30989;52.078;21.014;2022-09-01T13:25:16;171380.38;;;28.87;28.16
45255;BME280;30989;52.078;21.014;2022-09-01T13:27:44;171441.25;;;29.10;27.83
45255;BME280;30989;52.078;21.014;2022-09-01T13:30:15;171349.25;;;28.76;27.18
45255;BME280;30989;52.078;21.014;2022-09-01T13:32:42;171351.94;;;28.77;27.81
45255;BME280;30989;52.078;21.014;2022-09-01T13:35:10;171479.13;;;29.25;28.36
45255;BME280;30989;52.078;21.014;2022-09-01T13:37:35;171579.28;;;29.62;26.46
45255;BME280;30989;52.078;21.014;2022-09-01T13:40:03;171688.94;;;30.03;26.75
45255;BME280;30989;52.078;21.014;2022-09-01T13:42:31;171753.91;;;30.28;26.38
45255;BME280;30989;52.078;21.014;2022-09-01T13:44:57;171837.84;;;30.59;26.65
45255;BME280;30989;52.078;21.014;2022-09-01T13:47:23;171955.63;;;31.03;26.13
45255;BME280;30989;52.078;21.014;2022-09-01T13:49:49;171997.63;;;31.19;25.20
45255;BME280;30989;52.078;21.014;2022-09-01T13:52:14;172009.88;;;31.24;26.19
45255;BME280;30989;52.078;21.014;2022-09-01T13:54:40;172038.31;;;31.34;26.25
45255;BME280;30989;52.078;21.014;2022-09-01T13:57:08;172070.78;;;31.47;25.66
45255;BME280;30989;52.078;21.014;2022-09-01T13:59:36;171877.09;;;30.74;26.72
45255;BME280;30989;52.078;21.014;2022-09-01T14:02:01;171630.72;;;29.81;26.90
45255;BME280;30989;52.078;21.014;2022-09-01T14:04:27;171259.97;;;28.42;27.40
45255;BME280;30989;52.078;21.014;2022-09-01T14:06:53;170809.72;;;26.73;28.07
45255;BME280;30989;52.078;21.014;2022-09-01T14:09:19;170481.31;;;25.50;29.91
45255;BME280;30989;52.078;21.014;2022-09-01T14:11:44;170177.50;;;24.35;30.57